sensor_id;sensor_type;location;lat;lon;timestamp;pressure;altitude;pressure_sealevel;temperature;humidity
39739;BME280;25422;48.286;8.484;2023-03-13T00:01:20;93606.09;;;6.67;100.00
39739;BME280;25422;48.286;8.484;2023-03-13T00:03:46;93602.34;;;6.70;100.00
39739;BME280;25422;48.286;8.484;2023-03-13T00:06:11;93604.78;;;6.71;100.00
39739;BME280;25422;48.286;8.484;2023-03-13T00:08:37;93599.94;;;6.68;100.00
39739;BME280;25422;48.286;8.484;2023-03-13T00:11:08;93604.66;;;6.81;100.00
39739;BME280;25422;48.286;8.484;2023-03-13T00:13:34;93609.38;;;6.78;100.00
39739;BME280;25422;48.286;8.484;2023-03-13T00:16:11;93609.88;;;6.73;100.00
39739;BME280;25422;48.286;8.484;2023-03-13T00:18:37;93607.88;;;6.67;100.00
39739;BME280;25422;48.286;8.484;2023-03-13T00:21:05;93600.44;;;6.72;100.00
39739;BME280;25422;48.286;8.484;2023-03-13T00:23:32;93600.78;;;6.77;100.00
39739;BME280;25422;48.286;8.484;2023-03-13T00:25:59;93607.91;;;6.83;100.00
39739;BME280;25422;48.286;8.484;2023-03-13T00:28:30;93611.66;;;6.89;100.00
39739;BME280;25422;48.286;8.484;2023-03-13T00:31:08;93609.03;;;6.89;100.00
39739;BME280;25422;48.286;8.484;2023-03-13T00:33:38;93600.94;;;6.92;100.00
39739;BME280;25422;48.286;8.484;2023-03-13T00:36:06;93592.00;;;6.86;100.00
39739;BME280;25422;48.286;8.484;2023-03-13T00:38:33;93588.41;;;6.87;100.00
39739;BME280;25422;48.286;8.484;2023-03-13T00:41:05;93592.66;;;6.97;100.00
39739;BME280;25422;48.286;8.484;2023-03-13T00:43:32;93593.31;;;6.99;100.00
39739;BME280;25422;48.286;8.484;2023-03-13T00:45:59;93584.50;;;7.08;100.00
39739;BME280;25422;48.286;8.484;2023-03-13T00:48:25;93586.66;;;7.04;100.00
39739;BME280;25422;48.286;8.484;2023-03-13T00:50:50;93582.75;;;7.17;100.00
39739;BME280;25422;48.286;8.484;2023-03-13T00:53:16;93588.28;;;7.05;100.00
39739;BME280;25422;48.286;8.484;2023-03-13T00:58:17;93586.31;;;7.07;100.00
39739;BME280;25422;48.286;8.484;2023-03-13T01:00:42;93585.19;;;7.18;100.00
39739;BME280;25422;48.286;8.484;2023-03-13T01:03:07;93584.69;;;7.15;100.00
39739;BME280;25422;48.286;8.484;2023-03-13T01:05:33;93582.25;;;7.21;100.00
39739;BME280;25422;48.286;8.484;2023-03-13T01:07:58;93575.25;;;7.22;100.00
39739;BME280;25422;48.286;8.484;2023-03-13T01:10:23;93576.06;;;7.14;100.00
39739;BME280;25422;48.286;8.484;2023-03-13T01:12:49;93579.47;;;7.15;100.00
39739;BME280;25422;48.286;8.484;2023-03-13T01:15:14;93575.25;;;7.22;100.00
39739;BME280;25422;48.286;8.484;2023-03-13T01:17:42;93569.06;;;7.23;100.00
39739;BME280;25422;48.286;8.484;2023-03-13T01:20:08;93579.50;;;7.31;100.00
39739;BME280;25422;48.286;8.484;2023-03-13T01:22:34;93581.06;;;7.40;100.00
39739;BME280;25422;48.286;8.484;2023-03-13T01:24:59;93570.03;;;7.38;100.00
39739;BME280;25422;48.286;8.484;2023-03-13T01:27:25;93565.19;;;7.35;100.00
39739;BME280;25422;48.286;8.484;2023-03-13T01:29:50;93561.09;;;7.33;100.00
39739;BME280;25422;48.286;8.484;2023-03-13T01:32:16;93566.78;;;7.36;100.00
39739;BME280;25422;48.286;8.484;2023-03-13T01:34:41;93563.00;;;7.47;100.00
39739;BME280;25422;48.286;8.484;2023-03-13T01:37:06;93554.91;;;7.50;100.00
39739;BME280;25422;48.286;8.484;2023-03-13T01:39:32;93558.66;;;7.48;100.00
39739;BME280;25422;48.286;8.484;2023-03-13T01:41:57;93576.00;;;7.55;100.00
39739;BME280;25422;48.286;8.484;2023-03-13T01:44:26;93569.66;;;7.66;100.00
39739;BME280;25422;48.286;8.484;2023-03-13T01:46:53;93561.19;;;7.72;100.00
39739;BME280;25422;48.286;8.484;2023-03-13T01:49:30;93567.03;;;7.74;100.00
39739;BME280;25422;48.286;8.484;2023-03-13T01:52:29;93563.13;;;7.79;100.00
39739;BME280;25422;48.286;8.484;2023-03-13T01:55:08;93564.88;;;7.86;100.00
39739;BME280;25422;48.286;8.484;2023-03-13T01:57:42;93569.63;;;7.83;100.00
39739;BME280;25422;48.286;8.484;2023-03-13T02:00:14;93563.94;;;7.79;100.00
39739;BME280;25422;48.286;8.484;2023-03-13T02:02:46;93559.69;;;7.78;100.00
39739;BME280;25422;48.286;8.484;2023-03-13T02:05:13;93554.16;;;7.81;100.00
39739;BME280;25422;48.286;8.484;2023-03-13T02:07:44;93543.91;;;7.80;100.00
39739;BME280;25422;48.286;8.484;2023-03-13T02:10:13;93540.84;;;7.76;100.00
39739;BME280;25422;48.286;8.484;2023-03-13T02:12:40;93525.97;;;7.85;100.00
39739;BME280;25422;48.286;8.484;2023-03-13T02:15:26;93523.25;;;7.78;100.00
39739;BME280;25422;48.286;8.484;2023-03-13T02:17:53;93524.44;;;7.59;100.00
39739;BME280;25422;48.286;8.484;2023-03-13T02:20:19;93530.19;;;7.46;100.00
39739;BME280;25422;48.286;8.484;2023-03-13T02:25:50;93533.97;;;7.27;100.00
39739;BME280;25422;48.286;8.484;2023-03-13T02:28:26;93517.69;;;7.25;100.00
39739;BME280;25422;48.286;8.484;2023-03-13T02:30:55;93518.66;;;7.24;100.00
39739;BME280;25422;48.286;8.484;2023-03-13T02:33:26;93518.84;;;7.14;100.00
39739;BME280;25422;48.286;8.484;2023-03-13T02:35:53;93524.22;;;7.13;100.00
39739;BME280;25422;48.286;8.484;2023-03-13T02:38:23;93523.25;;;7.05;100.00
39739;BME280;25422;48.286;8.484;2023-03-13T02:40:51;93516.72;;;7.18;100.00
39739;BME280;25422;48.286;8.484;2023-03-13T02:43:28;93514.31;;;7.16;100.00
39739;BME280;25422;48.286;8.484;2023-03-13T02:46:05;93512.19;;;7.12;100.00
39739;BME280;25422;48.286;8.484;2023-03-13T02:48:41;93511.53;;;7.18;100.00
39739;BME280;25422;48.286;8.484;2023-03-13T02:51:40;93503.72;;;7.18;100.00
39739;BME280;25422;48.286;8.484;2023-03-13T02:54:11;93492.66;;;7.16;100.00
39739;BME280;25422;48.286;8.484;2023-03-13T02:56:40;93485.53;;;7.09;100.00
39739;BME280;25422;48.286;8.484;2023-03-13T02:59:07;93492.03;;;7.05;100.00
39739;BME280;25422;48.286;8.484;2023-03-13T03:01:35;93482.44;;;7.06;100.00
39739;BME280;25422;48.286;8.484;2023-03-13T03:04:00;93480.19;;;7.03;100.00
39739;BME280;25422;48.286;8.484;2023-03-13T03:06:26;93477.25;;;7.06;100.00
39739;BME280;25422;48.286;8.484;2023-03-13T03:08:53;93467.34;;;7.01;100.00
39739;BME280;25422;48.286;8.484;2023-03-13T03:11:18;93479.69;;;6.99;100.00
39739;BME280;25422;48.286;8.484;2023-03-13T03:13:48;93483.25;;;7.06;100.00
39739;BME280;25422;48.286;8.484;2023-03-13T03:16:15;93476.28;;;6.99;100.00
39739;BME280;25422;48.286;8.484;2023-03-13T03:18:45;93474.66;;;6.98;100.00
39739;BME280;25422;48.286;8.484;2023-03-13T03:21:11;93471.25;;;7.05;100.00
39739;BME280;25422;48.286;8.484;2023-03-13T03:23:38;93463.56;;;7.04;100.00
39739;BME280;25422;48.286;8.484;2023-03-13T03:26:05;93456.59;;;7.04;100.00
39739;BME280;25422;48.286;8.484;2023-03-13T03:28:31;93468.28;;;7.08;100.00
39739;BME280;25422;48.286;8.484;2023-03-13T03:31:10;93452.69;;;7.08;100.00
39739;BME280;25422;48.286;8.484;2023-03-13T03:33:36;93460.81;;;7.14;100.00
39739;BME280;25422;48.286;8.484;2023-03-13T03:36:10;93458.53;;;7.11;100.00
39739;BME280;25422;48.286;8.484;2023-03-13T03:38:36;93457.22;;;7.06;100.00
39739;BME280;25422;48.286;8.484;2023-03-13T03:41:05;93461.63;;;7.06;100.00
39739;BME280;25422;48.286;8.484;2023-03-13T03:43:32;93457.06;;;7.00;100.00
39739;BME280;25422;48.286;8.484;2023-03-13T03:45:59;93456.09;;;7.01;100.00
39739;BME280;25422;48.286;8.484;2023-03-13T03:48:25;93451.72;;;7.09;100.00
39739;BME280;25422;48.286;8.484;2023-03-13T03:50:50;93448.78;;;7.13;100.00
39739;BME280;25422;48.286;8.484;2023-03-13T03:53:16;93461.94;;;7.19;100.00
39739;BME280;25422;48.286;8.484;2023-03-13T03:55:43;93458.03;;;7.15;100.00
39739;BME280;25422;48.286;8.484;2023-03-13T03:58:08;93462.41;;;7.23;100.00
39739;BME280;25422;48.286;8.484;2023-03-13T04:00:55;93461.75;;;7.21;100.00
39739;BME280;25422;48.286;8.484;2023-03-13T04:03:21;93457.88;;;7.17;100.00
39739;BME280;25422;48.286;8.484;2023-03-13T04:05:46;93461.94;;;7.19;100.00
39739;BME280;25422;48.286;8.484;2023-03-13T04:08:12;93453.16;;;7.20;100.00
39739;BME280;25422;48.286;8.484;2023-03-13T04:10:39;93460.13;;;7.20;100.00
39739;BME280;25422;48.286;8.484;2023-03-13T04:13:04;93446.63;;;7.24;100.00
39739;BME280;25422;48.286;8.484;2023-03-13T04:15:31;93452.66;;;7.25;100.00
39739;BME280;25422;48.286;8.484;2023-03-13T04:17:57;93446.13;;;7.29;100.00
39739;BME280;25422;48.286;8.484;2023-03-13T04:20:22;93440.25;;;7.35;100.00
39739;BME280;25422;48.286;8.484;2023-03-13T04:22:48;93429.94;;;7.58;100.00
39739;BME280;25422;48.286;8.484;2023-03-13T04:25:14;93426.44;;;7.66;100.00
39739;BME280;25422;48.286;8.484;2023-03-13T04:27:40;93428.78;;;7.61;100.00
39739;BME280;25422;48.286;8.484;2023-03-13T04:30:07;93430.88;;;7.66;100.00
39739;BME280;25422;48.286;8.484;2023-03-13T04:32:41;93428.13;;;7.59;100.00
39739;BME280;25422;48.286;8.484;2023-03-13T04:35:36;93429.59;;;7.62;100.00
39739;BME280;25422;48.286;8.484;2023-03-13T04:38:01;93430.72;;;7.59;100.00
39739;BME280;25422;48.286;8.484;2023-03-13T04:40:45;93431.22;;;7.63;100.00
39739;BME280;25422;48.286;8.484;2023-03-13T04:43:29;93415.91;;;7.59;100.00
39739;BME280;25422;48.286;8.484;2023-03-13T04:46:24;93429.03;;;7.74;100.00
39739;BME280;25422;48.286;8.484;2023-03-13T04:49:10;93428.00;;;7.84;100.00
39739;BME280;25422;48.286;8.484;2023-03-13T04:51:55;93423.63;;;7.84;100.00
39739;BME280;25422;48.286;8.484;2023-03-13T04:54:26;93429.97;;;7.82;100.00
39739;BME280;25422;48.286;8.484;2023-03-13T04:57:16;93424.66;;;7.98;100.00
39739;BME280;25422;48.286;8.484;2023-03-13T05:00:06;93425.69;;;7.89;100.00
39739;BME280;25422;48.286;8.484;2023-03-13T05:02:42;93412.72;;;7.81;100.00
39739;BME280;25422;48.286;8.484;2023-03-13T05:05:28;93419.78;;;7.72;100.00
39739;BME280;25422;48.286;8.484;2023-03-13T05:08:00;93419.44;;;7.75;100.00
39739;BME280;25422;48.286;8.484;2023-03-13T05:10:33;93427.91;;;7.69;100.00
39739;BME280;25422;48.286;8.484;2023-03-13T05:13:17;93425.03;;;7.55;100.00
39739;BME280;25422;48.286;8.484;2023-03-13T05:16:00;93435.59;;;7.62;100.00
39739;BME280;25422;48.286;8.484;2023-03-13T05:19:04;93445.72;;;7.49;100.00
39739;BME280;25422;48.286;8.484;2023-03-13T05:21:59;93438.06;;;7.55;100.00
39739;BME280;25422;48.286;8.484;2023-03-13T05:24:45;93442.59;;;7.62;100.00
39739;BME280;25422;48.286;8.484;2023-03-13T05:27:16;93428.25;;;7.66;100.00
39739;BME280;25422;48.286;8.484;2023-03-13T05:29:52;93432.41;;;7.83;100.00
39739;BME280;25422;48.286;8.484;2023-03-13T05:32:36;93436.34;;;7.79;100.00
39739;BME280;25422;48.286;8.484;2023-03-13T05:35:18;93429.63;;;7.85;100.00
39739;BME280;25422;48.286;8.484;2023-03-13T05:37:56;93436.34;;;7.79;100.00
39739;BME280;25422;48.286;8.484;2023-03-13T05:40:54;93446.56;;;7.81;100.00
39739;BME280;25422;48.286;8.484;2023-03-13T05:43:34;93442.03;;;7.83;100.00
39739;BME280;25422;48.286;8.484;2023-03-13T05:46:02;93441.03;;;7.84;100.00
39739;BME280;25422;48.286;8.484;2023-03-13T05:48:40;93431.25;;;7.86;100.00
39739;BME280;25422;48.286;8.484;2023-03-13T05:51:20;93430.66;;;7.75;100.00
39739;BME280;25422;48.286;8.484;2023-03-13T05:54:12;93432.28;;;7.76;100.00
39739;BME280;25422;48.286;8.484;2023-03-13T05:56:55;93419.78;;;7.72;100.00
39739;BME280;25422;48.286;8.484;2023-03-13T05:59:43;93417.66;;;7.67;100.00
39739;BME280;25422;48.286;8.484;2023-03-13T06:02:32;93414.44;;;7.65;100.00
39739;BME280;25422;48.286;8.484;2023-03-13T06:04:58;93424.84;;;7.65;100.00
39739;BME280;25422;48.286;8.484;2023-03-13T06:07:24;93420.28;;;7.67;100.00
39739;BME280;25422;48.286;8.484;2023-03-13T06:09:49;93436.41;;;7.63;100.00
39739;BME280;25422;48.286;8.484;2023-03-13T06:12:15;93430.38;;;7.62;100.00
39739;BME280;25422;48.286;8.484;2023-03-13T06:14:40;93439.81;;;7.63;100.00
39739;BME280;25422;48.286;8.484;2023-03-13T06:17:20;93440.16;;;7.60;100.00
39739;BME280;25422;48.286;8.484;2023-03-13T06:19:45;93446.84;;;7.63;100.00
39739;BME280;25422;48.286;8.484;2023-03-13T06:22:11;93458.84;;;7.64;100.00
39739;BME280;25422;48.286;8.484;2023-03-13T06:24:37;93462.09;;;7.66;100.00
39739;BME280;25422;48.286;8.484;2023-03-13T06:27:02;93446.28;;;7.75;100.00
39739;BME280;25422;48.286;8.484;2023-03-13T06:29:27;93463.47;;;7.85;100.00
39739;BME280;25422;48.286;8.484;2023-03-13T06:31:53;93464.59;;;7.90;100.00
39739;BME280;25422;48.286;8.484;2023-03-13T06:34:18;93466.53;;;7.97;100.00
39739;BME280;25422;48.286;8.484;2023-03-13T06:36:44;93453.50;;;7.97;100.00
39739;BME280;25422;48.286;8.484;2023-03-13T06:39:10;93454.13;;;7.99;100.00
39739;BME280;25422;48.286;8.484;2023-03-13T06:41:36;93452.78;;;8.03;100.00
39739;BME280;25422;48.286;8.484;2023-03-13T06:44:02;93466.81;;;8.02;100.00
39739;BME280;25422;48.286;8.484;2023-03-13T06:46:27;93459.47;;;8.05;100.00
39739;BME280;25422;48.286;8.484;2023-03-13T06:48:52;93459.47;;;8.05;100.00
39739;BME280;25422;48.286;8.484;2023-03-13T06:51:20;93465.28;;;8.16;100.00
39739;BME280;25422;48.286;8.484;2023-03-13T06:53:46;93457.16;;;8.10;100.00
39739;BME280;25422;48.286;8.484;2023-03-13T06:56:11;93447.38;;;8.13;100.00
39739;BME280;25422;48.286;8.484;2023-03-13T06:58:37;93446.22;;;8.15;100.00
39739;BME280;25422;48.286;8.484;2023-03-13T07:01:10;93453.22;;;8.15;100.00
39739;BME280;25422;48.286;8.484;2023-03-13T07:03:36;93450.63;;;8.15;100.00
39739;BME280;25422;48.286;8.484;2023-03-13T07:06:03;93457.28;;;8.17;100.00
39739;BME280;25422;48.286;8.484;2023-03-13T07:08:29;93455.09;;;8.29;100.00
39739;BME280;25422;48.286;8.484;2023-03-13T07:11:00;93462.03;;;8.37;100.00
39739;BME280;25422;48.286;8.484;2023-03-13T07:13:27;93456.81;;;8.37;100.00
39739;BME280;25422;48.286;8.484;2023-03-13T07:15:53;93466.44;;;8.36;100.00
39739;BME280;25422;48.286;8.484;2023-03-13T07:18:19;93471.03;;;8.34;100.00
39739;BME280;25422;48.286;8.484;2023-03-13T07:20:51;93467.91;;;8.39;100.00
39739;BME280;25422;48.286;8.484;2023-03-13T07:23:18;93477.53;;;8.38;100.00
39739;BME280;25422;48.286;8.484;2023-03-13T07:25:51;93479.94;;;8.40;100.00
39739;BME280;25422;48.286;8.484;2023-03-13T07:28:17;93471.59;;;8.44;100.00
39739;BME280;25422;48.286;8.484;2023-03-13T07:30:42;93479.59;;;8.43;100.00
39739;BME280;25422;48.286;8.484;2023-03-13T07:33:07;93474.19;;;8.53;100.00
39739;BME280;25422;48.286;8.484;2023-03-13T07:35:33;93475.28;;;8.58;100.00
39739;BME280;25422;48.286;8.484;2023-03-13T07:37:58;93457.50;;;8.62;100.00
39739;BME280;25422;48.286;8.484;2023-03-13T07:40:23;93459.28;;;8.62;100.00
39739;BME280;25422;48.286;8.484;2023-03-13T07:42:49;93455.41;;;8.57;100.00
39739;BME280;25422;48.286;8.484;2023-03-13T07:45:14;93453.78;;;8.56;100.00
39739;BME280;25422;48.286;8.484;2023-03-13T07:47:40;93444.28;;;8.64;100.00
39739;BME280;25422;48.286;8.484;2023-03-13T07:50:05;93454.34;;;8.67;100.00
39739;BME280;25422;48.286;8.484;2023-03-13T07:52:31;93450.75;;;8.68;100.00
39739;BME280;25422;48.286;8.484;2023-03-13T07:54:56;93451.34;;;8.78;100.00
39739;BME280;25422;48.286;8.484;2023-03-13T07:57:22;93435.88;;;8.76;100.00
39739;BME280;25422;48.286;8.484;2023-03-13T07:59:47;93435.03;;;8.76;100.00
39739;BME280;25422;48.286;8.484;2023-03-13T08:02:12;93402.22;;;8.82;100.00
39739;BME280;25422;48.286;8.484;2023-03-13T08:04:39;93400.63;;;8.81;100.00
39739;BME280;25422;48.286;8.484;2023-03-13T08:07:11;93392.25;;;9.00;100.00
39739;BME280;25422;48.286;8.484;2023-03-13T08:09:36;93379.78;;;9.25;100.00
39739;BME280;25422;48.286;8.484;2023-03-13T08:12:01;93380.22;;;10.02;100.00
39739;BME280;25422;48.286;8.484;2023-03-13T08:14:27;93370.25;;;10.49;100.00
39739;BME280;25422;48.286;8.484;2023-03-13T08:16:52;93370.00;;;11.01;100.00
39739;BME280;25422;48.286;8.484;2023-03-13T08:19:18;93371.72;;;11.63;100.00
39739;BME280;25422;48.286;8.484;2023-03-13T08:21:43;93377.94;;;12.04;100.00
39739;BME280;25422;48.286;8.484;2023-03-13T08:24:10;93373.47;;;11.91;100.00
39739;BME280;25422;48.286;8.484;2023-03-13T08:26:39;93373.97;;;11.73;100.00
39739;BME280;25422;48.286;8.484;2023-03-13T08:29:07;93368.50;;;11.55;100.00
39739;BME280;25422;48.286;8.484;2023-03-13T08:31:35;93359.75;;;11.34;100.00
39739;BME280;25422;48.286;8.484;2023-03-13T08:34:01;93348.31;;;11.48;100.00
39739;BME280;25422;48.286;8.484;2023-03-13T08:36:32;93342.53;;;11.67;100.00
39739;BME280;25422;48.286;8.484;2023-03-13T08:39:03;93343.66;;;11.99;100.00
39739;BME280;25422;48.286;8.484;2023-03-13T08:41:32;93341.31;;;12.58;100.00
39739;BME280;25422;48.286;8.484;2023-03-13T08:43:59;93328.72;;;13.07;100.00
39739;BME280;25422;48.286;8.484;2023-03-13T08:46:25;93338.25;;;12.54;100.00
39739;BME280;25422;48.286;8.484;2023-03-13T08:48:51;93337.25;;;12.89;100.00
39739;BME280;25422;48.286;8.484;2023-03-13T08:51:19;93342.13;;;13.57;100.00
39739;BME280;25422;48.286;8.484;2023-03-13T08:53:45;93349.06;;;14.29;100.00
39739;BME280;25422;48.286;8.484;2023-03-13T08:56:13;93349.41;;;14.39;100.00
39739;BME280;25422;48.286;8.484;2023-03-13T08:58:40;93325.09;;;14.69;100.00
39739;BME280;25422;48.286;8.484;2023-03-13T09:01:11;93345.75;;;14.08;100.00
39739;BME280;25422;48.286;8.484;2023-03-13T09:03:38;93350.41;;;13.61;100.00
39739;BME280;25422;48.286;8.484;2023-03-13T09:06:04;93351.22;;;13.61;100.00
39739;BME280;25422;48.286;8.484;2023-03-13T09:08:30;93350.72;;;13.12;100.00
39739;BME280;25422;48.286;8.484;2023-03-13T09:11:06;93349.75;;;12.93;100.00
39739;BME280;25422;48.286;8.484;2023-03-13T09:13:34;93347.56;;;13.69;100.00
39739;BME280;25422;48.286;8.484;2023-03-13T09:16:05;93347.44;;;14.28;100.00
39739;BME280;25422;48.286;8.484;2023-03-13T09:18:31;93348.28;;;14.22;100.00
39739;BME280;25422;48.286;8.484;2023-03-13T09:20:57;93353.63;;;14.40;100.00
39739;BME280;25422;48.286;8.484;2023-03-13T09:23:23;93349.22;;;14.34;100.00
39739;BME280;25422;48.286;8.484;2023-03-13T09:25:51;93345.00;;;14.58;100.00
39739;BME280;25422;48.286;8.484;2023-03-13T09:28:17;93342.16;;;14.60;100.00
39739;BME280;25422;48.286;8.484;2023-03-13T09:30:43;93339.31;;;14.87;100.00
39739;BME280;25422;48.286;8.484;2023-03-13T09:33:08;93341.75;;;14.31;100.00
39739;BME280;25422;48.286;8.484;2023-03-13T09:35:33;93343.28;;;14.13;100.00
39739;BME280;25422;48.286;8.484;2023-03-13T09:37:59;93345.06;;;14.20;100.00
39739;BME280;25422;48.286;8.484;2023-03-13T09:40:25;93331.81;;;14.33;100.00
39739;BME280;25422;48.286;8.484;2023-03-13T09:42:55;93324.84;;;14.96;100.00
39739;BME280;25422;48.286;8.484;2023-03-13T09:45:33;93311.50;;;15.16;100.00
39739;BME280;25422;48.286;8.484;2023-03-13T09:48:07;93313.63;;;15.07;100.00
39739;BME280;25422;48.286;8.484;2023-03-13T09:50:39;93313.38;;;15.27;100.00
39739;BME280;25422;48.286;8.484;2023-03-13T09:53:13;93311.06;;;15.38;100.00
39739;BME280;25422;48.286;8.484;2023-03-13T09:55:40;93309.94;;;14.90;100.00
39739;BME280;25422;48.286;8.484;2023-03-13T09:58:22;93312.03;;;15.92;99.25
39739;BME280;25422;48.286;8.484;2023-03-13T10:01:03;93295.69;;;15.34;100.00
39739;BME280;25422;48.286;8.484;2023-03-13T10:06:01;93290.88;;;14.69;100.00
39739;BME280;25422;48.286;8.484;2023-03-13T10:08:33;93279.56;;;14.62;100.00
39739;BME280;25422;48.286;8.484;2023-03-13T10:11:33;93280.47;;;14.99;100.00
39739;BME280;25422;48.286;8.484;2023-03-13T10:14:22;93281.94;;;15.14;100.00
39739;BME280;25422;48.286;8.484;2023-03-13T10:17:04;93283.53;;;14.96;100.00
39739;BME280;25422;48.286;8.484;2023-03-13T10:19:34;93288.25;;;14.88;100.00
39739;BME280;25422;48.286;8.484;2023-03-13T10:22:03;93261.72;;;14.89;100.00
39739;BME280;25422;48.286;8.484;2023-03-13T10:24:39;93272.81;;;14.73;100.00
39739;BME280;25422;48.286;8.484;2023-03-13T10:27:10;93261.09;;;14.69;100.00
39739;BME280;25422;48.286;8.484;2023-03-13T10:29:37;93247.44;;;15.34;100.00
39739;BME280;25422;48.286;8.484;2023-03-13T10:32:06;93250.03;;;15.22;100.00
39739;BME280;25422;48.286;8.484;2023-03-13T10:34:52;93238.22;;;15.74;96.60
39739;BME280;25422;48.286;8.484;2023-03-13T10:37:40;93241.59;;;15.32;100.00
39739;BME280;25422;48.286;8.484;2023-03-13T10:42:47;93223.22;;;15.25;100.00
39739;BME280;25422;48.286;8.484;2023-03-13T10:45:16;93213.41;;;15.32;100.00
39739;BME280;25422;48.286;8.484;2023-03-13T10:47:43;93205.16;;;15.29;99.68
39739;BME280;25422;48.286;8.484;2023-03-13T10:50:20;93204.44;;;15.52;97.34
39739;BME280;25422;48.286;8.484;2023-03-13T10:52:47;93190.69;;;15.01;95.00
39739;BME280;25422;48.286;8.484;2023-03-13T10:55:20;93178.81;;;15.10;94.09
39739;BME280;25422;48.286;8.484;2023-03-13T10:58:03;93191.31;;;15.76;93.27
39739;BME280;25422;48.286;8.484;2023-03-13T11:00:36;93183.31;;;16.48;84.80
39739;BME280;25422;48.286;8.484;2023-03-13T11:03:14;93181.88;;;16.81;79.21
39739;BME280;25422;48.286;8.484;2023-03-13T11:05:42;93173.53;;;16.61;78.59
39739;BME280;25422;48.286;8.484;2023-03-13T11:08:35;93159.66;;;16.54;77.32
39739;BME280;25422;48.286;8.484;2023-03-13T11:11:03;93161.03;;;16.44;76.58
39739;BME280;25422;48.286;8.484;2023-03-13T11:13:40;93148.06;;;16.43;78.94
39739;BME280;25422;48.286;8.484;2023-03-13T11:16:21;93158.97;;;16.23;75.46
39739;BME280;25422;48.286;8.484;2023-03-13T11:19:07;93155.31;;;16.24;73.09
39739;BME280;25422;48.286;8.484;2023-03-13T11:21:56;93137.97;;;16.28;72.44
39739;BME280;25422;48.286;8.484;2023-03-13T11:29:56;93125.81;;;17.03;67.92
39739;BME280;25422;48.286;8.484;2023-03-13T11:32:35;93123.25;;;16.67;70.60
39739;BME280;25422;48.286;8.484;2023-03-13T11:35:06;93124.28;;;17.36;67.31
39739;BME280;25422;48.286;8.484;2023-03-13T11:37:40;93106.75;;;18.10;66.93
39739;BME280;25422;48.286;8.484;2023-03-13T11:45:47;93069.00;;;20.28;51.89
39739;BME280;25422;48.286;8.484;2023-03-13T11:48:50;93073.69;;;19.78;51.70
39739;BME280;25422;48.286;8.484;2023-03-13T11:51:23;93057.38;;;19.31;53.39
39739;BME280;25422;48.286;8.484;2023-03-13T11:54:24;93042.34;;;20.07;49.01
39739;BME280;25422;48.286;8.484;2023-03-13T11:56:56;93036.06;;;19.48;50.80
39739;BME280;25422;48.286;8.484;2023-03-13T12:02:03;93030.59;;;19.60;48.65
39739;BME280;25422;48.286;8.484;2023-03-13T12:04:35;93032.31;;;20.19;48.34
39739;BME280;25422;48.286;8.484;2023-03-13T12:07:10;93034.63;;;20.05;47.70
39739;BME280;25422;48.286;8.484;2023-03-13T12:09:41;93029.59;;;19.71;48.69
39739;BME280;25422;48.286;8.484;2023-03-13T12:12:32;93027.91;;;19.87;48.55
39739;BME280;25422;48.286;8.484;2023-03-13T12:18:21;93010.44;;;20.55;49.02
39739;BME280;25422;48.286;8.484;2023-03-13T12:20:59;92998.38;;;20.27;48.78
39739;BME280;25422;48.286;8.484;2023-03-13T12:26:11;92989.84;;;20.19;46.49
39739;BME280;25422;48.286;8.484;2023-03-13T12:28:54;92975.31;;;19.84;47.48
39739;BME280;25422;48.286;8.484;2023-03-13T12:31:25;92969.13;;;19.36;46.99
39739;BME280;25422;48.286;8.484;2023-03-13T12:34:29;92965.34;;;19.27;46.67
39739;BME280;25422;48.286;8.484;2023-03-13T12:37:19;92955.31;;;19.34;47.54
39739;BME280;25422;48.286;8.484;2023-03-13T12:43:03;92944.69;;;20.93;45.20
39739;BME280;25422;48.286;8.484;2023-03-13T12:45:31;92936.81;;;20.35;44.79
39739;BME280;25422;48.286;8.484;2023-03-13T12:48:56;92926.88;;;21.09;43.88
39739;BME280;25422;48.286;8.484;2023-03-13T12:54:17;92914.13;;;21.58;43.46
39739;BME280;25422;48.286;8.484;2023-03-13T12:59:53;92904.94;;;22.10;41.02
39739;BME280;25422;48.286;8.484;2023-03-13T13:02:23;92886.25;;;22.20;38.67
39739;BME280;25422;48.286;8.484;2023-03-13T13:04:50;92896.56;;;21.05;41.88
39739;BME280;25422;48.286;8.484;2023-03-13T13:07:28;92893.91;;;20.84;43.08
39739;BME280;25422;48.286;8.484;2023-03-13T13:12:40;92874.66;;;20.41;41.53
39739;BME280;25422;48.286;8.484;2023-03-13T13:15:19;92872.47;;;20.17;42.83
39739;BME280;25422;48.286;8.484;2023-03-13T13:17:56;92872.47;;;20.17;43.73
39739;BME280;25422;48.286;8.484;2023-03-13T13:20:41;92879.59;;;20.01;42.95
39739;BME280;25422;48.286;8.484;2023-03-13T13:23:24;92871.41;;;19.17;45.16
39739;BME280;25422;48.286;8.484;2023-03-13T13:25:53;92857.75;;;18.98;46.10
39739;BME280;25422;48.286;8.484;2023-03-13T13:28:25;92860.28;;;19.20;46.34
39739;BME280;25422;48.286;8.484;2023-03-13T13:30:54;92862.94;;;19.15;47.02
39739;BME280;25422;48.286;8.484;2023-03-13T13:38:34;92836.63;;;19.57;47.13
39739;BME280;25422;48.286;8.484;2023-03-13T13:43:45;92821.59;;;19.73;47.69
39739;BME280;25422;48.286;8.484;2023-03-13T13:46:30;92813.78;;;19.50;46.49
39739;BME280;25422;48.286;8.484;2023-03-13T13:51:30;92805.25;;;18.95;48.83
39739;BME280;25422;48.286;8.484;2023-03-13T13:53:58;92816.19;;;19.04;49.52
39739;BME280;25422;48.286;8.484;2023-03-13T13:59:21;92799.06;;;19.22;49.07
39739;BME280;25422;48.286;8.484;2023-03-13T14:02:21;92794.31;;;19.82;48.44
39739;BME280;25422;48.286;8.484;2023-03-13T14:05:07;92791.66;;;19.82;47.16
39739;BME280;25422;48.286;8.484;2023-03-13T14:10:36;92777.13;;;19.32;46.90
39739;BME280;25422;48.286;8.484;2023-03-13T14:13:10;92786.59;;;19.23;48.10
39739;BME280;25422;48.286;8.484;2023-03-13T14:15:36;92780.22;;;19.18;47.56
39739;BME280;25422;48.286;8.484;2023-03-13T14:21:03;92758.53;;;18.51;49.61
39739;BME280;25422;48.286;8.484;2023-03-13T14:23:42;92746.38;;;18.50;49.60